sensor_id;sensor_type;location;lat;lon;timestamp;temperature;humidity
33460;DHT22;19795;53.160;6.612;2024-01-15T05:21:28;0.50;99.90
33460;DHT22;19795;53.160;6.612;2024-01-15T05:23:54;0.70;99.90
33460;DHT22;19795;53.160;6.612;2024-01-15T05:31:31;0.50;99.90
33460;DHT22;19795;53.160;6.612;2024-01-15T05:33:59;0.70;99.90
33460;DHT22;19795;53.160;6.612;2024-01-15T05:36:27;0.30;99.90
33460;DHT22;19795;53.160;6.612;2024-01-15T05:38:52;0.70;99.90
33460;DHT22;19795;53.160;6.612;2024-01-15T05:41:18;0.40;99.90
33460;DHT22;19795;53.160;6.612;2024-01-15T05:43:44;0.80;99.90
33460;DHT22;19795;53.160;6.612;2024-01-15T05:46:09;0.40;99.90
33460;DHT22;19795;53.160;6.612;2024-01-15T05:48:35;0.40;99.90
33460;DHT22;19795;53.160;6.612;2024-01-15T05:51:01;1.00;99.90
33460;DHT22;19795;53.160;6.612;2024-01-15T05:53:27;0.30;99.90
33460;DHT22;19795;53.160;6.612;2024-01-15T05:55:53;0.30;99.90
33460;DHT22;19795;53.160;6.612;2024-01-15T05:58:22;0.60;99.90
33460;DHT22;19795;53.160;6.612;2024-01-15T06:00:51;0.50;99.90
33460;DHT22;19795;53.160;6.612;2024-01-15T06:03:16;0.20;99.90
33460;DHT22;19795;53.160;6.612;2024-01-15T06:05:45;1.60;99.90
33460;DHT22;19795;53.160;6.612;2024-01-15T06:08:10;0.30;99.90
33460;DHT22;19795;53.160;6.612;2024-01-15T06:10:36;0.50;99.90
33460;DHT22;19795;53.160;6.612;2024-01-15T06:13:02;0.70;99.90
33460;DHT22;19795;53.160;6.612;2024-01-15T06:15:48;0.70;99.90
33460;DHT22;19795;53.160;6.612;2024-01-15T06:18:14;0.70;99.90
33460;DHT22;19795;53.160;6.612;2024-01-15T06:20:40;0.70;99.90
33460;DHT22;19795;53.160;6.612;2024-01-15T06:23:05;0.70;99.90
33460;DHT22;19795;53.160;6.612;2024-01-15T06:25:31;0.70;99.90
33460;DHT22;19795;53.160;6.612;2024-01-15T06:27:57;0.80;99.90
33460;DHT22;19795;53.160;6.612;2024-01-15T06:30:22;0.70;99.90
33460;DHT22;19795;53.160;6.612;2024-01-15T06:32:48;1.00;99.90
33460;DHT22;19795;53.160;6.612;2024-01-15T06:35:14;0.70;99.90
33460;DHT22;19795;53.160;6.612;2024-01-15T06:37:40;0.70;99.90
33460;DHT22;19795;53.160;6.612;2024-01-15T06:40:06;0.40;99.90
33460;DHT22;19795;53.160;6.612;2024-01-15T06:42:32;0.60;99.90
33460;DHT22;19795;53.160;6.612;2024-01-15T06:44:58;0.60;99.90
33460;DHT22;19795;53.160;6.612;2024-01-15T06:47:24;0.70;99.90
33460;DHT22;19795;53.160;6.612;2024-01-15T06:49:50;0.60;99.90
33460;DHT22;19795;53.160;6.612;2024-01-15T06:52:17;0.80;99.90
33460;DHT22;19795;53.160;6.612;2024-01-15T06:54:43;0.90;99.90
33460;DHT22;19795;53.160;6.612;2024-01-15T06:57:08;0.90;99.90
33460;DHT22;19795;53.160;6.612;2024-01-15T06:59:34;1.10;99.90
33460;DHT22;19795;53.160;6.612;2024-01-15T07:02:03;1.50;99.90
33460;DHT22;19795;53.160;6.612;2024-01-15T07:04:28;0.90;99.90
33460;DHT22;19795;53.160;6.612;2024-01-15T07:06:54;0.90;99.90
33460;DHT22;19795;53.160;6.612;2024-01-15T07:09:20;1.90;99.90
33460;DHT22;19795;53.160;6.612;2024-01-15T07:11:46;1.30;99.90
33460;DHT22;19795;53.160;6.612;2024-01-15T07:14:14;1.40;99.90
33460;DHT22;19795;53.160;6.612;2024-01-15T07:16:40;0.90;99.90
33460;DHT22;19795;53.160;6.612;2024-01-15T07:19:05;1.30;99.90
33460;DHT22;19795;53.160;6.612;2024-01-15T07:21:31;1.10;99.90
33460;DHT22;19795;53.160;6.612;2024-01-15T07:23:57;0.90;99.90
33460;DHT22;19795;53.160;6.612;2024-01-15T07:26:23;0.80;99.90
33460;DHT22;19795;53.160;6.612;2024-01-15T07:28:48;1.00;99.90
33460;DHT22;19795;53.160;6.612;2024-01-15T07:31:16;1.70;99.90
33460;DHT22;19795;53.160;6.612;2024-01-15T07:33:41;1.30;99.90
33460;DHT22;19795;53.160;6.612;2024-01-15T07:36:07;1.30;99.90
33460;DHT22;19795;53.160;6.612;2024-01-15T07:38:33;0.80;99.90
33460;DHT22;19795;53.160;6.612;2024-01-15T07:40:59;1.00;99.90
33460;DHT22;19795;53.160;6.612;2024-01-15T07:43:24;0.50;99.90
33460;DHT22;19795;53.160;6.612;2024-01-15T07:45:50;0.70;99.90
33460;DHT22;19795;53.160;6.612;2024-01-15T07:48:16;0.80;99.90
33460;DHT22;19795;53.160;6.612;2024-01-15T07:50:41;0.40;99.90
33460;DHT22;19795;53.160;6.612;2024-01-15T07:53:07;0.80;99.90
33460;DHT22;19795;53.160;6.612;2024-01-15T07:55:33;0.70;99.90
33460;DHT22;19795;53.160;6.612;2024-01-15T07:57:58;0.60;99.90
33460;DHT22;19795;53.160;6.612;2024-01-15T08:00:25;1.00;99.90
33460;DHT22;19795;53.160;6.612;2024-01-15T08:02:50;1.00;99.90
33460;DHT22;19795;53.160;6.612;2024-01-15T08:05:18;0.90;99.90
33460;DHT22;19795;53.160;6.612;2024-01-15T08:07:44;1.30;99.90
33460;DHT22;19795;53.160;6.612;2024-01-15T08:10:10;0.90;99.90
33460;DHT22;19795;53.160;6.612;2024-01-15T08:12:35;0.90;99.90
33460;DHT22;19795;53.160;6.612;2024-01-15T08:15:01;1.10;99.90
33460;DHT22;19795;53.160;6.612;2024-01-15T08:17:27;0.70;99.90
33460;DHT22;19795;53.160;6.612;2024-01-15T08:19:54;0.80;99.90
33460;DHT22;19795;53.160;6.612;2024-01-15T08:22:20;1.20;99.90
33460;DHT22;19795;53.160;6.612;2024-01-15T08:24:46;1.20;99.90
33460;DHT22;19795;53.160;6.612;2024-01-15T08:27:11;1.40;99.90
33460;DHT22;19795;53.160;6.612;2024-01-15T08:29:37;1.10;99.90
33460;DHT22;19795;53.160;6.612;2024-01-15T08:32:03;0.80;99.90
33460;DHT22;19795;53.160;6.612;2024-01-15T08:34:28;0.80;99.90
33460;DHT22;19795;53.160;6.612;2024-01-15T08:36:54;0.70;99.90
33460;DHT22;19795;53.160;6.612;2024-01-15T08:39:20;1.20;99.90
33460;DHT22;19795;53.160;6.612;2024-01-15T08:41:45;1.20;99.90
33460;DHT22;19795;53.160;6.612;2024-01-15T08:44:14;1.80;99.90
33460;DHT22;19795;53.160;6.612;2024-01-15T08:46:39;1.10;99.90
33460;DHT22;19795;53.160;6.612;2024-01-15T08:49:05;1.60;99.90
33460;DHT22;19795;53.160;6.612;2024-01-15T08:51:31;1.60;99.90
33460;DHT22;19795;53.160;6.612;2024-01-15T08:53:57;1.20;99.90
33460;DHT22;19795;53.160;6.612;2024-01-15T08:56:23;1.40;99.90
33460;DHT22;19795;53.160;6.612;2024-01-15T08:58:49;1.60;99.90
33460;DHT22;19795;53.160;6.612;2024-01-15T09:01:15;1.70;99.90
33460;DHT22;19795;53.160;6.612;2024-01-15T09:03:41;2.20;99.90
33460;DHT22;19795;53.160;6.612;2024-01-15T09:06:09;2.20;99.90
33460;DHT22;19795;53.160;6.612;2024-01-15T09:08:35;2.00;99.90
33460;DHT22;19795;53.160;6.612;2024-01-15T09:11:02;2.00;99.90
33460;DHT22;19795;53.160;6.612;2024-01-15T09:13:28;2.00;99.90
33460;DHT22;19795;53.160;6.612;2024-01-15T09:15:54;2.00;99.90
33460;DHT22;19795;53.160;6.612;2024-01-15T09:18:19;2.00;99.90
33460;DHT22;19795;53.160;6.612;2024-01-15T09:20:45;2.10;99.90
33460;DHT22;19795;53.160;6.612;2024-01-15T09:23:11;2.50;99.90
33460;DHT22;19795;53.160;6.612;2024-01-15T09:25:36;2.10;99.90
33460;DHT22;19795;53.160;6.612;2024-01-15T09:28:02;2.20;99.90
33460;DHT22;19795;53.160;6.612;2024-01-15T09:30:28;2.20;99.90
33460;DHT22;19795;53.160;6.612;2024-01-15T09:32:54;2.20;99.90
33460;DHT22;19795;53.160;6.612;2024-01-15T09:35:19;2.20;99.90
33460;DHT22;19795;53.160;6.612;2024-01-15T09:37:45;2.20;99.90
33460;DHT22;19795;53.160;6.612;2024-01-15T09:40:14;2.20;99.90
33460;DHT22;19795;53.160;6.612;2024-01-15T09:42:41;2.30;99.90
33460;DHT22;19795;53.160;6.612;2024-01-15T09:45:08;2.10;99.90
33460;DHT22;19795;53.160;6.612;2024-01-15T09:47:35;2.10;99.90
33460;DHT22;19795;53.160;6.612;2024-01-15T09:50:02;2.40;99.90
33460;DHT22;19795;53.160;6.612;2024-01-15T09:52:30;2.10;99.90
33460;DHT22;19795;53.160;6.612;2024-01-15T09:54:58;2.30;99.90
33460;DHT22;19795;53.160;6.612;2024-01-15T09:57:24;2.50;99.90
33460;DHT22;19795;53.160;6.612;2024-01-15T09:59:52;2.20;99.90
33460;DHT22;19795;53.160;6.612;2024-01-15T10:02:18;2.70;99.90
33460;DHT22;19795;53.160;6.612;2024-01-15T10:04:45;3.40;99.90
33460;DHT22;19795;53.160;6.612;2024-01-15T10:07:15;2.50;99.90
33460;DHT22;19795;53.160;6.612;2024-01-15T10:09:42;2.20;99.90
33460;DHT22;19795;53.160;6.612;2024-01-15T10:12:07;2.60;99.90
33460;DHT22;19795;53.160;6.612;2024-01-15T10:14:34;2.80;99.90
33460;DHT22;19795;53.160;6.612;2024-01-15T10:17:00;2.70;99.90
33460;DHT22;19795;53.160;6.612;2024-01-15T10:19:26;2.80;99.90
33460;DHT22;19795;53.160;6.612;2024-01-15T10:21:51;3.00;99.90
33460;DHT22;19795;53.160;6.612;2024-01-15T10:24:17;3.10;99.90
33460;DHT22;19795;53.160;6.612;2024-01-15T10:26:43;3.10;99.90
33460;DHT22;19795;53.160;6.612;2024-01-15T10:29:09;2.50;99.90
33460;DHT22;19795;53.160;6.612;2024-01-15T10:31:37;3.60;99.90
33460;DHT22;19795;53.160;6.612;2024-01-15T10:34:13;2.50;99.90
33460;DHT22;19795;53.160;6.612;2024-01-15T10:36:41;2.20;99.90
33460;DHT22;19795;53.160;6.612;2024-01-15T10:39:07;2.50;99.90
33460;DHT22;19795;53.160;6.612;2024-01-15T10:41:37;2.20;99.90
33460;DHT22;19795;53.160;6.612;2024-01-15T10:44:03;2.40;99.90
33460;DHT22;19795;53.160;6.612;2024-01-15T10:46:29;2.70;99.90
33460;DHT22;19795;53.160;6.612;2024-01-15T10:48:55;2.90;99.90
33460;DHT22;19795;53.160;6.612;2024-01-15T10:51:21;3.30;99.90
33460;DHT22;19795;53.160;6.612;2024-01-15T10:53:48;3.30;99.90
33460;DHT22;19795;53.160;6.612;2024-01-15T10:56:13;2.90;99.90
33460;DHT22;19795;53.160;6.612;2024-01-15T10:58:40;2.70;99.90
33460;DHT22;19795;53.160;6.612;2024-01-15T11:01:07;3.00;99.90
33460;DHT22;19795;53.160;6.612;2024-01-15T11:03:33;3.10;99.90
33460;DHT22;19795;53.160;6.612;2024-01-15T11:05:59;3.30;99.90
33460;DHT22;19795;53.160;6.612;2024-01-15T11:08:25;3.10;99.90
33460;DHT22;19795;53.160;6.612;2024-01-15T11:10:52;2.60;99.90
33460;DHT22;19795;53.160;6.612;2024-01-15T11:16:06;3.00;99.90
33460;DHT22;19795;53.160;6.612;2024-01-15T11:18:39;2.60;99.90
33460;DHT22;19795;53.160;6.612;2024-01-15T11:23:46;2.80;99.90
33460;DHT22;19795;53.160;6.612;2024-01-15T11:28:54;2.50;99.90
33460;DHT22;19795;53.160;6.612;2024-01-15T11:31:20;2.40;99.90
33460;DHT22;19795;53.160;6.612;2024-01-15T11:33:52;2.00;99.90
33460;DHT22;19795;53.160;6.612;2024-01-15T11:36:17;2.30;99.90
33460;DHT22;19795;53.160;6.612;2024-01-15T11:38:43;2.20;99.90
33460;DHT22;19795;53.160;6.612;2024-01-15T11:41:15;2.30;99.90
33460;DHT22;19795;53.160;6.612;2024-01-15T11:43:41;2.30;99.90
33460;DHT22;19795;53.160;6.612;2024-01-15T11:46:11;2.60;99.90
33460;DHT22;19795;53.160;6.612;2024-01-15T11:48:44;2.30;99.90
33460;DHT22;19795;53.160;6.612;2024-01-15T11:51:12;2.40;99.90
33460;DHT22;19795;53.160;6.612;2024-01-15T11:53:48;2.20;99.90
33460;DHT22;19795;53.160;6.612;2024-01-15T11:56:18;2.20;99.90
33460;DHT22;19795;53.160;6.612;2024-01-15T11:58:47;2.60;99.90
33460;DHT22;19795;53.160;6.612;2024-01-15T12:01:13;2.40;99.90
33460;DHT22;19795;53.160;6.612;2024-01-15T12:03:39;2.30;99.90
33460;DHT22;19795;53.160;6.612;2024-01-15T12:06:09;2.10;99.90
33460;DHT22;19795;53.160;6.612;2024-01-15T12:08:35;2.40;99.90
33460;DHT22;19795;53.160;6.612;2024-01-15T12:11:06;1.60;99.90
33460;DHT22;19795;53.160;6.612;2024-01-15T12:13:32;1.60;99.90
33460;DHT22;19795;53.160;6.612;2024-01-15T12:16:01;1.70;99.90
33460;DHT22;19795;53.160;6.612;2024-01-15T12:18:29;1.80;99.90
33460;DHT22;19795;53.160;6.612;2024-01-15T12:20:55;1.80;99.90
33460;DHT22;19795;53.160;6.612;2024-01-15T12:23:20;1.60;99.90
33460;DHT22;19795;53.160;6.612;2024-01-15T12:25:46;2.30;99.90
33460;DHT22;19795;53.160;6.612;2024-01-15T12:28:12;2.20;99.90
33460;DHT22;19795;53.160;6.612;2024-01-15T12:30:39;2.00;99.90
33460;DHT22;19795;53.160;6.612;2024-01-15T12:33:05;2.00;99.90
33460;DHT22;19795;53.160;6.612;2024-01-15T12:35:33;2.00;99.90
33460;DHT22;19795;53.160;6.612;2024-01-15T12:38:00;2.20;99.90
33460;DHT22;19795;53.160;6.612;2024-01-15T12:40:27;1.90;99.90
33460;DHT22;19795;53.160;6.612;2024-01-15T12:42:53;2.00;99.90
33460;DHT22;19795;53.160;6.612;2024-01-15T12:45:19;2.40;99.90
33460;DHT22;19795;53.160;6.612;2024-01-15T12:47:46;2.30;99.90
33460;DHT22;19795;53.160;6.612;2024-01-15T12:50:12;2.40;99.90
33460;DHT22;19795;53.160;6.612;2024-01-15T12:52:40;2.60;99.90
33460;DHT22;19795;53.160;6.612;2024-01-15T12:55:08;2.60;99.90
33460;DHT22;19795;53.160;6.612;2024-01-15T12:57:37;2.70;99.90
33460;DHT22;19795;53.160;6.612;2024-01-15T13:00:04;3.00;99.90
33460;DHT22;19795;53.160;6.612;2024-01-15T13:02:40;3.00;99.90
33460;DHT22;19795;53.160;6.612;2024-01-15T13:05:08;2.90;99.90
33460;DHT22;19795;53.160;6.612;2024-01-15T13:07:34;2.90;99.90
33460;DHT22;19795;53.160;6.612;2024-01-15T13:10:00;2.80;99.90
33460;DHT22;19795;53.160;6.612;2024-01-15T13:12:25;3.10;99.90
33460;DHT22;19795;53.160;6.612;2024-01-15T13:14:51;3.30;99.90
33460;DHT22;19795;53.160;6.612;2024-01-15T13:17:17;2.80;99.90
33460;DHT22;19795;53.160;6.612;2024-01-15T13:19:42;2.80;99.90
33460;DHT22;19795;53.160;6.612;2024-01-15T13:22:08;2.90;99.90
33460;DHT22;19795;53.160;6.612;2024-01-15T13:24:35;2.50;99.90
33460;DHT22;19795;53.160;6.612;2024-01-15T13:27:02;2.30;99.90
33460;DHT22;19795;53.160;6.612;2024-01-15T13:29:29;2.20;99.90
33460;DHT22;19795;53.160;6.612;2024-01-15T13:31:55;2.30;99.90
33460;DHT22;19795;53.160;6.612;2024-01-15T13:34:20;2.70;99.90
33460;DHT22;19795;53.160;6.612;2024-01-15T13:36:46;2.40;99.90
33460;DHT22;19795;53.160;6.612;2024-01-15T13:39:12;2.40;99.90
33460;DHT22;19795;53.160;6.612;2024-01-15T13:41:37;2.60;99.90
33460;DHT22;19795;53.160;6.612;2024-01-15T13:44:03;2.80;99.90
33460;DHT22;19795;53.160;6.612;2024-01-15T13:46:29;3.00;99.90
33460;DHT22;19795;53.160;6.612;2024-01-15T13:48:55;3.60;99.90
33460;DHT22;19795;53.160;6.612;2024-01-15T13:51:24;3.60;99.90
33460;DHT22;19795;53.160;6.612;2024-01-15T13:53:50;3.20;99.90
33460;DHT22;19795;53.160;6.612;2024-01-15T13:56:16;3.60;99.90
33460;DHT22;19795;53.160;6.612;2024-01-15T13:58:42;3.20;99.90
33460;DHT22;19795;53.160;6.612;2024-01-15T14:01:08;3.00;99.90
33460;DHT22;19795;53.160;6.612;2024-01-15T14:03:34;2.80;99.90
33460;DHT22;19795;53.160;6.612;2024-01-15T14:06:00;2.50;99.90
33460;DHT22;19795;53.160;6.612;2024-01-15T14:08:37;2.50;99.90
33460;DHT22;19795;53.160;6.612;2024-01-15T14:11:03;2.40;99.90
33460;DHT22;19795;53.160;6.612;2024-01-15T14:13:29;2.30;99.90
33460;DHT22;19795;53.160;6.612;2024-01-15T14:15:55;2.30;99.90
33460;DHT22;19795;53.160;6.612;2024-01-15T14:18:21;2.20;99.90
33460;DHT22;19795;53.160;6.612;2024-01-15T14:20:50;2.40;99.90
33460;DHT22;19795;53.160;6.612;2024-01-15T14:23:16;2.10;99.90
33460;DHT22;19795;53.160;6.612;2024-01-15T14:25:41;2.10;99.90
33460;DHT22;19795;53.160;6.612;2024-01-15T14:28:07;2.50;99.90
33460;DHT22;19795;53.160;6.612;2024-01-15T14:30:33;2.00;99.90
33460;DHT22;19795;53.160;6.612;2024-01-15T14:32:58;2.00;99.90
33460;DHT22;19795;53.160;6.612;2024-01-15T14:35:24;2.00;99.90
33460;DHT22;19795;53.160;6.612;2024-01-15T14:37:50;2.30;99.90
33460;DHT22;19795;53.160;6.612;2024-01-15T14:40:15;2.30;99.90
33460;DHT22;19795;53.160;6.612;2024-01-15T14:42:41;2.00;99.90
33460;DHT22;19795;53.160;6.612;2024-01-15T14:45:08;2.30;99.90
33460;DHT22;19795;53.160;6.612;2024-01-15T14:47:42;1.80;99.90
33460;DHT22;19795;53.160;6.612;2024-01-15T14:50:09;2.70;99.90
33460;DHT22;19795;53.160;6.612;2024-01-15T14:52:36;1.90;99.90
33460;DHT22;19795;53.160;6.612;2024-01-15T14:55:02;2.00;99.90
33460;DHT22;19795;53.160;6.612;2024-01-15T14:57:28;2.10;99.90
33460;DHT22;19795;53.160;6.612;2024-01-15T14:59:53;2.00;99.90
33460;DHT22;19795;53.160;6.612;2024-01-15T15:02:20;1.90;99.90
33460;DHT22;19795;53.160;6.612;2024-01-15T15:04:45;1.90;99.90
33460;DHT22;19795;53.160;6.612;2024-01-15T15:07:11;1.80;99.90
33460;DHT22;19795;53.160;6.612;2024-01-15T15:09:37;2.20;99.90
33460;DHT22;19795;53.160;6.612;2024-01-15T15:12:03;1.80;99.90
33460;DHT22;19795;53.160;6.612;2024-01-15T15:14:30;1.80;99.90
33460;DHT22;19795;53.160;6.612;2024-01-15T15:16:57;1.80;99.90
33460;DHT22;19795;53.160;6.612;2024-01-15T15:19:23;1.80;99.90
33460;DHT22;19795;53.160;6.612;2024-01-15T15:21:48;1.90;99.90
33460;DHT22;19795;53.160;6.612;2024-01-15T15:24:14;2.00;99.90
33460;DHT22;19795;53.160;6.612;2024-01-15T15:26:40;1.60;99.90
33460;DHT22;19795;53.160;6.612;2024-01-15T15:29:06;1.70;99.90
33460;DHT22;19795;53.160;6.612;2024-01-15T15:31:32;1.40;99.90
33460;DHT22;19795;53.160;6.612;2024-01-15T15:33:57;1.30;99.90
33460;DHT22;19795;53.160;6.612;2024-01-15T15:36:23;1.20;99.90
33460;DHT22;19795;53.160;6.612;2024-01-15T15:38:49;1.00;99.90
33460;DHT22;19795;53.160;6.612;2024-01-15T15:41:14;1.00;99.90
33460;DHT22;19795;53.160;6.612;2024-01-15T15:43:40;1.10;99.90
33460;DHT22;19795;53.160;6.612;2024-01-15T15:46:06;1.10;99.90
33460;DHT22;19795;53.160;6.612;2024-01-15T15:48:32;1.10;99.90
33460;DHT22;19795;53.160;6.612;2024-01-15T15:50:57;1.10;99.90
33460;DHT22;19795;53.160;6.612;2024-01-15T15:53:25;1.10;99.90
33460;DHT22;19795;53.160;6.612;2024-01-15T15:55:51;1.10;99.90
33460;DHT22;19795;53.160;6.612;2024-01-15T15:58:17;1.10;99.90
33460;DHT22;19795;53.160;6.612;2024-01-15T16:00:43;1.00;99.90
33460;DHT22;19795;53.160;6.612;2024-01-15T16:03:08;0.90;99.90
33460;DHT22;19795;53.160;6.612;2024-01-15T16:05:34;1.20;99.90
33460;DHT22;19795;53.160;6.612;2024-01-15T16:08:00;0.90;99.90
33460;DHT22;19795;53.160;6.612;2024-01-15T16:10:26;0.90;99.90
33460;DHT22;19795;53.160;6.612;2024-01-15T16:12:51;1.00;99.90
33460;DHT22;19795;53.160;6.612;2024-01-15T16:15:22;1.10;99.90
33460;DHT22;19795;53.160;6.612;2024-01-15T16:17:49;1.10;99.90
33460;DHT22;19795;53.160;6.612;2024-01-15T16:20:16;1.10;99.90
33460;DHT22;19795;53.160;6.612;2024-01-15T16:22:42;1.00;99.90
33460;DHT22;19795;53.160;6.612;2024-01-15T16:25:08;1.00;99.90
33460;DHT22;19795;53.160;6.612;2024-01-15T16:27:34;1.10;99.90
33460;DHT22;19795;53.160;6.612;2024-01-15T16:30:02;1.20;99.90
33460;DHT22;19795;53.160;6.612;2024-01-15T16:32:28;0.70;99.90
33460;DHT22;19795;53.160;6.612;2024-01-15T16:34:54;1.10;99.90
33460;DHT22;19795;53.160;6.612;2024-01-15T16:37:20;1.10;99.90
33460;DHT22;19795;53.160;6.612;2024-01-15T16:39:45;0.50;99.90
33460;DHT22;19795;53.160;6.612;2024-01-15T16:42:11;0.80;99.90
33460;DHT22;19795;53.160;6.612;2024-01-15T16:44:37;0.60;99.90
33460;DHT22;19795;53.160;6.612;2024-01-15T16:47:03;0.60;99.90
33460;DHT22;19795;53.160;6.612;2024-01-15T16:49:30;0.70;99.90
33460;DHT22;19795;53.160;6.612;2024-01-15T16:51:56;0.90;99.90
33460;DHT22;19795;53.160;6.612;2024-01-15T16:54:22;1.00;99.90
33460;DHT22;19795;53.160;6.612;2024-01-15T16:56:48;0.60;99.90
33460;DHT22;19795;53.160;6.612;2024-01-15T16:59:14;0.50;99.90
33460;DHT22;19795;53.160;6.612;2024-01-15T17:01:40;0.50;99.90
33460;DHT22;19795;53.160;6.612;2024-01-15T17:04:05;0.60;99.90
33460;DHT22;19795;53.160;6.612;2024-01-15T17:06:32;0.90;99.90
33460;DHT22;19795;53.160;6.612;2024-01-15T17:08:58;1.10;99.90
33460;DHT22;19795;53.160;6.612;2024-01-15T17:11:23;0.70;99.90
33460;DHT22;19795;53.160;6.612;2024-01-15T17:13:50;1.50;99.90
33460;DHT22;19795;53.160;6.612;2024-01-15T17:16:16;1.00;99.90
33460;DHT22;19795;53.160;6.612;2024-01-15T17:18:43;0.70;99.90
33460;DHT22;19795;53.160;6.612;2024-01-15T17:21:09;0.70;99.90
33460;DHT22;19795;53.160;6.612;2024-01-15T17:23:37;0.80;99.90
33460;DHT22;19795;53.160;6.612;2024-01-15T17:26:03;0.90;99.90
33460;DHT22;19795;53.160;6.612;2024-01-15T17:28:29;0.80;99.90
33460;DHT22;19795;53.160;6.612;2024-01-15T17:30:55;0.80;99.90
33460;DHT22;19795;53.160;6.612;2024-01-15T17:33:21;1.80;99.90
33460;DHT22;19795;53.160;6.612;2024-01-15T17:35:54;1.40;99.90
33460;DHT22;19795;53.160;6.612;2024-01-15T17:38:20;0.80;99.90
33460;DHT22;19795;53.160;6.612;2024-01-15T17:40:46;0.70;99.90
33460;DHT22;19795;53.160;6.612;2024-01-15T17:43:13;0.70;99.90
33460;DHT22;19795;53.160;6.612;2024-01-15T17:45:40;0.70;99.90
33460;DHT22;19795;53.160;6.612;2024-01-15T17:48:07;0.70;99.90
33460;DHT22;19795;53.160;6.612;2024-01-15T17:50:34;1.00;99.90
33460;DHT22;19795;53.160;6.612;2024-01-15T17:53:00;0.60;99.90
33460;DHT22;19795;53.160;6.612;2024-01-15T17:55:26;0.80;99.90
33460;DHT22;19795;53.160;6.612;2024-01-15T17:57:52;0.60;99.90
33460;DHT22;19795;53.160;6.612;2024-01-15T18:00:19;1.10;99.90
33460;DHT22;19795;53.160;6.612;2024-01-15T18:02:45;0.70;99.90
33460;DHT22;19795;53.160;6.612;2024-01-15T18:05:13;1.10;99.90
33460;DHT22;19795;53.160;6.612;2024-01-15T18:07:38;0.70;99.90
33460;DHT22;19795;53.160;6.612;2024-01-15T18:10:06;0.80;99.90
33460;DHT22;19795;53.160;6.612;2024-01-15T18:12:32;0.60;99.90
33460;DHT22;19795;53.160;6.612;2024-01-15T18:14:58;0.50;99.90
33460;DHT22;19795;53.160;6.612;2024-01-15T18:17:24;1.00;99.90
33460;DHT22;19795;53.160;6.612;2024-01-15T18:19:52;0.80;99.90
33460;DHT22;19795;53.160;6.612;2024-01-15T18:22:18;0.50;99.90
33460;DHT22;19795;53.160;6.612;2024-01-15T18:24:44;0.80;99.90
33460;DHT22;19795;53.160;6.612;2024-01-15T18:27:10;0.50;99.90
33460;DHT22;19795;53.160;6.612;2024-01-15T18:29:36;0.70;99.90
33460;DHT22;19795;53.160;6.612;2024-01-15T18:32:01;0.60;99.90
33460;DHT22;19795;53.160;6.612;2024-01-15T18:34:28;0.60;99.90
33460;DHT22;19795;53.160;6.612;2024-01-15T18:36:54;0.50;99.90
33460;DHT22;19795;53.160;6.612;2024-01-15T18:39:20;0.50;99.90
33460;DHT22;19795;53.160;6.612;2024-01-15T18:41:46;0.50;99.90
33460;DHT22;19795;53.160;6.612;2024-01-15T18:44:12;0.50;99.90
33460;DHT22;19795;53.160;6.612;2024-01-15T18:46:38;0.60;99.90
33460;DHT22;19795;53.160;6.612;2024-01-15T18:49:04;0.70;99.90
33460;DHT22;19795;53.160;6.612;2024-01-15T18:51:29;1.10;99.90
33460;DHT22;19795;53.160;6.612;2024-01-15T18:53:55;0.80;99.90
33460;DHT22;19795;53.160;6.612;2024-01-15T18:56:24;0.80;99.90
33460;DHT22;19795;53.160;6.612;2024-01-15T19:01:39;0.90;99.90
33460;DHT22;19795;53.160;6.612;2024-01-15T19:04:05;1.00;99.90
33460;DHT22;19795;53.160;6.612;2024-01-15T19:06:31;1.20;99.90
33460;DHT22;19795;53.160;6.612;2024-01-15T19:08:56;0.80;99.90
33460;DHT22;19795;53.160;6.612;2024-01-15T19:11:22;1.20;99.90
33460;DHT22;19795;53.160;6.612;2024-01-15T19:13:51;0.70;99.90
33460;DHT22;19795;53.160;6.612;2024-01-15T19:16:17;0.70;99.90
33460;DHT22;19795;53.160;6.612;2024-01-15T19:18:48;1.00;99.90
33460;DHT22;19795;53.160;6.612;2024-01-15T19:21:14;0.70;99.90
33460;DHT22;19795;53.160;6.612;2024-01-15T19:23:40;0.40;99.90
33460;DHT22;19795;53.160;6.612;2024-01-15T19:26:05;0.80;99.90
33460;DHT22;19795;53.160;6.612;2024-01-15T19:28:32;0.70;99.90
33460;DHT22;19795;53.160;6.612;2024-01-15T19:30:58;0.60;99.90
33460;DHT22;19795;53.160;6.612;2024-01-15T19:33:25;0.90;99.90
33460;DHT22;19795;53.160;6.612;2024-01-15T19:35:51;1.00;99.90
33460;DHT22;19795;53.160;6.612;2024-01-15T19:38:16;1.20;99.90
33460;DHT22;19795;53.160;6.612;2024-01-15T19:40:42;2.10;99.90
33460;DHT22;19795;53.160;6.612;2024-01-15T19:43:09;1.00;99.90
33460;DHT22;19795;53.160;6.612;2024-01-15T19:45:36;0.80;99.90
33460;DHT22;19795;53.160;6.612;2024-01-15T19:48:01;0.80;99.90
33460;DHT22;19795;53.160;6.612;2024-01-15T19:50:30;0.80;99.90
33460;DHT22;19795;53.160;6.612;2024-01-15T19:52:56;0.80;99.90
33460;DHT22;19795;53.160;6.612;2024-01-15T19:55:21;0.80;99.90
33460;DHT22;19795;53.160;6.612;2024-01-15T19:57:47;0.70;99.90
33460;DHT22;19795;53.160;6.612;2024-01-15T20:00:14;0.80;99.90
33460;DHT22;19795;53.160;6.612;2024-01-15T20:02:40;0.80;99.90
33460;DHT22;19795;53.160;6.612;2024-01-15T20:05:07;1.10;99.90
33460;DHT22;19795;53.160;6.612;2024-01-15T20:07:35;0.80;99.90
33460;DHT22;19795;53.160;6.612;2024-01-15T20:10:03;0.80;99.90
33460;DHT22;19795;53.160;6.612;2024-01-15T20:12:29;0.90;99.90
33460;DHT22;19795;53.160;6.612;2024-01-15T20:14:54;0.90;99.90
33460;DHT22;19795;53.160;6.612;2024-01-15T20:17:20;1.30;99.90
33460;DHT22;19795;53.160;6.612;2024-01-15T20:19:46;0.90;99.90
33460;DHT22;19795;53.160;6.612;2024-01-15T20:22:14;0.80;99.90
33460;DHT22;19795;53.160;6.612;2024-01-15T20:24:40;0.80;99.90
33460;DHT22;19795;53.160;6.612;2024-01-15T20:27:06;0.80;99.90
33460;DHT22;19795;53.160;6.612;2024-01-15T20:29:31;0.90;99.90
33460;DHT22;19795;53.160;6.612;2024-01-15T20:31:57;0.80;99.90
33460;DHT22;19795;53.160;6.612;2024-01-15T20:34:23;0.90;99.90
33460;DHT22;19795;53.160;6.612;2024-01-15T20:36:49;2.00;99.90
33460;DHT22;19795;53.160;6.612;2024-01-15T20:39:16;0.80;99.90
33460;DHT22;19795;53.160;6.612;2024-01-15T20:41:42;1.10;99.90
33460;DHT22;19795;53.160;6.612;2024-01-15T20:44:07;1.10;99.90
33460;DHT22;19795;53.160;6.612;2024-01-15T20:46:33;1.00;99.90
33460;DHT22;19795;53.160;6.612;2024-01-15T20:48:59;0.70;99.90
33460;DHT22;19795;53.160;6.612;2024-01-15T20:51:24;0.70;99.90
33460;DHT22;19795;53.160;6.612;2024-01-15T20:53:50;0.90;99.90
33460;DHT22;19795;53.160;6.612;2024-01-15T20:56:16;1.60;99.90
33460;DHT22;19795;53.160;6.612;2024-01-15T20:58:42;1.00;99.90
33460;DHT22;19795;53.160;6.612;2024-01-15T21:01:09;0.60;99.90
33460;DHT22;19795;53.160;6.612;2024-01-15T21:03:35;1.30;99.90
33460;DHT22;19795;53.160;6.612;2024-01-15T21:06:01;0.70;99.90
33460;DHT22;19795;53.160;6.612;2024-01-15T21:08:26;0.80;99.90
33460;DHT22;19795;53.160;6.612;2024-01-15T21:10:54;1.20;99.90
33460;DHT22;19795;53.160;6.612;2024-01-15T21:13:19;0.90;99.90
33460;DHT22;19795;53.160;6.612;2024-01-15T21:15:45;1.20;99.90